sensor_id;sensor_type;location;lat;lon;timestamp;pressure;altitude;pressure_sealevel;temperature;humidity
18527;BME280;9393;42.158;24.748;2023-03-03T00:02:23;99888.59;;;7.89;87.53
18527;BME280;9393;42.158;24.748;2023-03-03T00:05:26;99877.72;;;7.95;87.29
18527;BME280;9393;42.158;24.748;2023-03-03T00:08:30;99873.81;;;8.00;87.24
18527;BME280;9393;42.158;24.748;2023-03-03T00:11:35;99872.66;;;8.04;87.21
18527;BME280;9393;42.158;24.748;2023-03-03T00:14:39;99867.81;;;7.78;89.05
18527;BME280;9393;42.158;24.748;2023-03-03T00:17:43;99859.16;;;7.66;89.38
18527;BME280;9393;42.158;24.748;2023-03-03T00:20:48;99852.78;;;7.70;89.12
18527;BME280;9393;42.158;24.748;2023-03-03T00:23:52;99850.69;;;7.75;89.47
18527;BME280;9393;42.158;24.748;2023-03-03T00:27:01;99836.06;;;7.85;88.28
18527;BME280;9393;42.158;24.748;2023-03-03T00:30:17;99833.22;;;7.77;88.82
18527;BME280;9393;42.158;24.748;2023-03-03T00:33:26;99828.63;;;7.92;87.64
18527;BME280;9393;42.158;24.748;2023-03-03T00:36:35;99821.53;;;8.05;86.58
18527;BME280;9393;42.158;24.748;2023-03-03T00:39:39;99824.97;;;7.94;86.77
18527;BME280;9393;42.158;24.748;2023-03-03T00:42:48;99811.50;;;7.78;87.13
18527;BME280;9393;42.158;24.748;2023-03-03T00:45:53;99812.13;;;7.93;86.42
18527;BME280;9393;42.158;24.748;2023-03-03T00:48:57;99810.44;;;7.92;86.30
18527;BME280;9393;42.158;24.748;2023-03-03T00:52:01;99806.31;;;8.00;85.93
18527;BME280;9393;42.158;24.748;2023-03-03T00:55:06;99801.50;;;7.96;85.75
18527;BME280;9393;42.158;24.748;2023-03-03T00:58:12;99796.06;;;7.99;85.67
18527;BME280;9393;42.158;24.748;2023-03-03T01:01:20;99794.38;;;7.98;85.97
18527;BME280;9393;42.158;24.748;2023-03-03T01:04:26;99798.66;;;8.10;85.34
18527;BME280;9393;42.158;24.748;2023-03-03T01:07:30;99797.31;;;8.16;85.24
18527;BME280;9393;42.158;24.748;2023-03-03T01:10:37;99793.06;;;8.26;85.11
18527;BME280;9393;42.158;24.748;2023-03-03T01:13:44;99792.81;;;8.18;85.14
18527;BME280;9393;42.158;24.748;2023-03-03T01:16:50;99792.59;;;8.32;84.65
18527;BME280;9393;42.158;24.748;2023-03-03T01:19:54;99787.38;;;8.21;85.67
18527;BME280;9393;42.158;24.748;2023-03-03T01:22:57;99800.28;;;8.22;85.44
18527;BME280;9393;42.158;24.748;2023-03-03T01:26:02;99794.00;;;8.25;85.69
18527;BME280;9393;42.158;24.748;2023-03-03T01:29:08;99794.25;;;8.22;85.72
18527;BME280;9393;42.158;24.748;2023-03-03T01:32:12;99796.84;;;8.44;84.64
18527;BME280;9393;42.158;24.748;2023-03-03T01:35:16;99795.41;;;8.51;84.44
18527;BME280;9393;42.158;24.748;2023-03-03T01:38:20;99793.97;;;8.58;84.29
18527;BME280;9393;42.158;24.748;2023-03-03T01:41:26;99792.31;;;8.57;84.41
18527;BME280;9393;42.158;24.748;2023-03-03T01:44:33;99787.72;;;8.49;83.94
18527;BME280;9393;42.158;24.748;2023-03-03T01:47:36;99800.13;;;8.46;84.54
18527;BME280;9393;42.158;24.748;2023-03-03T01:50:43;99787.63;;;8.51;84.17
18527;BME280;9393;42.158;24.748;2023-03-03T01:53:50;99786.91;;;8.38;84.57
18527;BME280;9393;42.158;24.748;2023-03-03T01:56:57;99790.22;;;8.40;85.28
18527;BME280;9393;42.158;24.748;2023-03-03T02:00:04;99774.03;;;8.47;85.18
18527;BME280;9393;42.158;24.748;2023-03-03T02:03:15;99780.06;;;8.48;85.26
18527;BME280;9393;42.158;24.748;2023-03-03T02:06:21;99773.06;;;8.48;84.98
18527;BME280;9393;42.158;24.748;2023-03-03T02:09:33;99772.78;;;8.31;85.36
18527;BME280;9393;42.158;24.748;2023-03-03T02:12:42;99771.31;;;8.38;84.85
18527;BME280;9393;42.158;24.748;2023-03-03T02:15:49;99767.59;;;8.31;85.58
18527;BME280;9393;42.158;24.748;2023-03-03T02:18:52;99769.78;;;8.46;84.91
18527;BME280;9393;42.158;24.748;2023-03-03T02:21:58;99770.69;;;8.56;84.00
18527;BME280;9393;42.158;24.748;2023-03-03T02:25:07;99770.13;;;8.42;85.24
18527;BME280;9393;42.158;24.748;2023-03-03T02:28:14;99773.78;;;8.50;85.76
18527;BME280;9393;42.158;24.748;2023-03-03T02:31:21;99764.31;;;8.49;85.78
18527;BME280;9393;42.158;24.748;2023-03-03T02:34:25;99763.09;;;8.33;86.72
18527;BME280;9393;42.158;24.748;2023-03-03T02:37:28;99760.94;;;8.27;86.96
18527;BME280;9393;42.158;24.748;2023-03-03T02:40:35;99760.81;;;8.17;88.11
18527;BME280;9393;42.158;24.748;2023-03-03T02:43:47;99761.81;;;8.05;88.86
18527;BME280;9393;42.158;24.748;2023-03-03T02:46:55;99764.47;;;8.26;87.92
18527;BME280;9393;42.158;24.748;2023-03-03T02:49:59;99766.84;;;8.18;88.18
18527;BME280;9393;42.158;24.748;2023-03-03T02:53:03;99763.31;;;8.30;87.68
18527;BME280;9393;42.158;24.748;2023-03-03T02:56:07;99763.06;;;8.22;88.42
18527;BME280;9393;42.158;24.748;2023-03-03T02:59:13;99764.00;;;8.21;88.18
18527;BME280;9393;42.158;24.748;2023-03-03T03:02:21;99764.38;;;8.27;87.77
18527;BME280;9393;42.158;24.748;2023-03-03T03:05:24;99764.84;;;8.32;87.51
18527;BME280;9393;42.158;24.748;2023-03-03T03:08:28;99766.75;;;7.97;89.69
18527;BME280;9393;42.158;24.748;2023-03-03T03:11:33;99760.28;;;7.91;90.38
18527;BME280;9393;42.158;24.748;2023-03-03T03:14:39;99764.16;;;7.97;89.55
18527;BME280;9393;42.158;24.748;2023-03-03T03:17:43;99753.31;;;8.03;89.71
18527;BME280;9393;42.158;24.748;2023-03-03T03:20:48;99759.78;;;8.20;88.68
18527;BME280;9393;42.158;24.748;2023-03-03T03:23:51;99750.56;;;8.27;88.73
18527;BME280;9393;42.158;24.748;2023-03-03T03:26:56;99752.78;;;8.31;88.28
18527;BME280;9393;42.158;24.748;2023-03-03T03:30:03;99751.91;;;8.10;88.96
18527;BME280;9393;42.158;24.748;2023-03-03T03:33:07;99754.81;;;8.17;89.07
18527;BME280;9393;42.158;24.748;2023-03-03T03:36:11;99757.44;;;8.17;88.70
18527;BME280;9393;42.158;24.748;2023-03-03T03:39:16;99755.03;;;8.25;88.20
18527;BME280;9393;42.158;24.748;2023-03-03T03:42:21;99747.50;;;8.33;87.96
18527;BME280;9393;42.158;24.748;2023-03-03T03:45:26;99752.44;;;8.36;87.75
18527;BME280;9393;42.158;24.748;2023-03-03T03:48:31;99750.81;;;8.24;88.66
18527;BME280;9393;42.158;24.748;2023-03-03T03:51:37;99752.44;;;8.36;87.96
18527;BME280;9393;42.158;24.748;2023-03-03T03:54:45;99753.88;;;8.29;87.93
18527;BME280;9393;42.158;24.748;2023-03-03T03:57:50;99749.41;;;8.08;89.41
18527;BME280;9393;42.158;24.748;2023-03-03T04:01:01;99756.59;;;8.16;88.85
18527;BME280;9393;42.158;24.748;2023-03-03T04:04:06;99752.00;;;7.97;89.89
18527;BME280;9393;42.158;24.748;2023-03-03T04:07:10;99760.53;;;7.99;89.57
18527;BME280;9393;42.158;24.748;2023-03-03T04:10:15;99755.75;;;8.27;88.42
18527;BME280;9393;42.158;24.748;2023-03-03T04:13:19;99756.00;;;8.12;88.98
18527;BME280;9393;42.158;24.748;2023-03-03T04:16:25;99749.88;;;8.02;89.18
18527;BME280;9393;42.158;24.748;2023-03-03T04:19:30;99748.03;;;7.82;90.35
18527;BME280;9393;42.158;24.748;2023-03-03T04:22:34;99744.94;;;7.88;90.02
18527;BME280;9393;42.158;24.748;2023-03-03T04:25:38;99749.78;;;7.82;90.07
18527;BME280;9393;42.158;24.748;2023-03-03T04:28:47;99744.59;;;7.82;89.75
18527;BME280;9393;42.158;24.748;2023-03-03T04:31:53;99748.72;;;7.84;89.76
18527;BME280;9393;42.158;24.748;2023-03-03T04:34:57;99750.34;;;7.96;89.52
18527;BME280;9393;42.158;24.748;2023-03-03T04:38:11;99747.53;;;7.99;89.44
18527;BME280;9393;42.158;24.748;2023-03-03T04:41:15;99744.34;;;7.96;89.44
18527;BME280;9393;42.158;24.748;2023-03-03T04:44:20;99746.13;;;7.84;89.83
18527;BME280;9393;42.158;24.748;2023-03-03T04:47:25;99742.47;;;7.87;89.70
18527;BME280;9393;42.158;24.748;2023-03-03T04:50:29;99751.81;;;7.89;89.79
18527;BME280;9393;42.158;24.748;2023-03-03T04:53:32;99743.63;;;7.94;89.24
18527;BME280;9393;42.158;24.748;2023-03-03T04:56:37;99743.50;;;8.06;88.72
18527;BME280;9393;42.158;24.748;2023-03-03T04:59:42;99738.31;;;8.06;88.58
18527;BME280;9393;42.158;24.748;2023-03-03T05:02:48;99744.22;;;8.08;88.44
18527;BME280;9393;42.158;24.748;2023-03-03T05:05:51;99748.72;;;8.06;88.61
18527;BME280;9393;42.158;24.748;2023-03-03T05:08:55;99748.97;;;7.92;89.03
18527;BME280;9393;42.158;24.748;2023-03-03T05:11:59;99753.09;;;7.95;89.25
18527;BME280;9393;42.158;24.748;2023-03-03T05:15:04;99749.88;;;8.02;88.53
18527;BME280;9393;42.158;24.748;2023-03-03T05:18:09;99755.53;;;7.96;88.77
18527;BME280;9393;42.158;24.748;2023-03-03T05:21:13;99756.72;;;8.03;87.91
18527;BME280;9393;42.158;24.748;2023-03-03T05:24:16;99750.56;;;8.16;87.85
18527;BME280;9393;42.158;24.748;2023-03-03T05:27:20;99755.44;;;7.98;88.49
18527;BME280;9393;42.158;24.748;2023-03-03T05:30:24;99754.69;;;8.07;88.23
18527;BME280;9393;42.158;24.748;2023-03-03T05:33:29;99751.75;;;8.00;88.82
18527;BME280;9393;42.158;24.748;2023-03-03T05:36:32;99760.38;;;8.12;88.37
18527;BME280;9393;42.158;24.748;2023-03-03T05:39:36;99756.34;;;8.19;87.61
18527;BME280;9393;42.158;24.748;2023-03-03T05:42:40;99761.19;;;8.24;87.46
18527;BME280;9393;42.158;24.748;2023-03-03T05:45:43;99753.16;;;8.16;87.50
18527;BME280;9393;42.158;24.748;2023-03-03T05:48:48;99766.91;;;7.95;87.52
18527;BME280;9393;42.158;24.748;2023-03-03T05:51:52;99758.00;;;8.20;86.83
18527;BME280;9393;42.158;24.748;2023-03-03T05:54:55;99762.81;;;8.25;86.48
18527;BME280;9393;42.158;24.748;2023-03-03T05:57:59;99764.09;;;8.41;85.38
18527;BME280;9393;42.158;24.748;2023-03-03T06:01:03;99765.22;;;8.17;85.74
18527;BME280;9393;42.158;24.748;2023-03-03T06:04:08;99768.63;;;8.28;85.90
18527;BME280;9393;42.158;24.748;2023-03-03T06:07:12;99769.56;;;8.27;84.87
18527;BME280;9393;42.158;24.748;2023-03-03T06:10:16;99762.84;;;8.36;84.58
18527;BME280;9393;42.158;24.748;2023-03-03T06:13:24;99771.31;;;8.38;83.88
18527;BME280;9393;42.158;24.748;2023-03-03T06:16:28;99772.53;;;8.23;84.55
18527;BME280;9393;42.158;24.748;2023-03-03T06:19:33;99775.78;;;8.58;83.62
18527;BME280;9393;42.158;24.748;2023-03-03T06:22:37;99776.72;;;8.57;82.77
18527;BME280;9393;42.158;24.748;2023-03-03T06:25:40;99781.31;;;8.65;82.44
18527;BME280;9393;42.158;24.748;2023-03-03T06:28:45;99787.03;;;8.79;82.10
18527;BME280;9393;42.158;24.748;2023-03-03T06:31:51;99784.31;;;8.81;82.05
18527;BME280;9393;42.158;24.748;2023-03-03T06:34:57;99791.50;;;8.88;82.32
18527;BME280;9393;42.158;24.748;2023-03-03T06:38:01;99789.84;;;8.87;82.08
18527;BME280;9393;42.158;24.748;2023-03-03T06:41:04;99789.97;;;8.86;81.64
18527;BME280;9393;42.158;24.748;2023-03-03T06:44:09;99784.34;;;8.70;82.68
18527;BME280;9393;42.158;24.748;2023-03-03T06:47:14;99783.47;;;8.80;82.10
18527;BME280;9393;42.158;24.748;2023-03-03T06:50:20;99790.72;;;8.97;81.72
18527;BME280;9393;42.158;24.748;2023-03-03T06:53:25;99784.97;;;8.62;82.09
18527;BME280;9393;42.158;24.748;2023-03-03T06:56:29;99788.31;;;8.85;82.20
18527;BME280;9393;42.158;24.748;2023-03-03T06:59:34;99784.88;;;8.84;81.87
18527;BME280;9393;42.158;24.748;2023-03-03T07:02:38;99788.03;;;8.99;81.00
18527;BME280;9393;42.158;24.748;2023-03-03T07:05:44;99782.63;;;9.11;80.60
18527;BME280;9393;42.158;24.748;2023-03-03T07:08:49;99789.22;;;8.95;81.23
18527;BME280;9393;42.158;24.748;2023-03-03T07:11:56;99780.75;;;9.13;80.86
18527;BME280;9393;42.158;24.748;2023-03-03T07:15:13;99786.56;;;9.27;79.98
18527;BME280;9393;42.158;24.748;2023-03-03T07:18:34;99789.34;;;9.35;79.24
18527;BME280;9393;42.158;24.748;2023-03-03T07:21:41;99788.53;;;9.34;77.99
18527;BME280;9393;42.158;24.748;2023-03-03T07:24:46;99783.66;;;8.99;79.48
18527;BME280;9393;42.158;24.748;2023-03-03T07:27:55;99785.03;;;9.03;79.50
18527;BME280;9393;42.158;24.748;2023-03-03T07:31:01;99780.31;;;8.97;79.29
18527;BME280;9393;42.158;24.748;2023-03-03T07:34:20;99784.22;;;9.03;79.17
18527;BME280;9393;42.158;24.748;2023-03-03T07:37:33;99780.03;;;9.11;78.91
18527;BME280;9393;42.158;24.748;2023-03-03T07:40:38;99784.53;;;9.09;79.37
18527;BME280;9393;42.158;24.748;2023-03-03T07:43:47;99785.03;;;9.03;79.43
18527;BME280;9393;42.158;24.748;2023-03-03T07:46:56;99782.38;;;9.14;79.15
18527;BME280;9393;42.158;24.748;2023-03-03T07:50:13;99779.81;;;9.03;79.75
18527;BME280;9393;42.158;24.748;2023-03-03T07:53:26;99781.44;;;9.16;79.17
18527;BME280;9393;42.158;24.748;2023-03-03T07:56:33;99776.84;;;9.29;78.71
18527;BME280;9393;42.158;24.748;2023-03-03T07:59:40;99777.31;;;9.34;78.27
18527;BME280;9393;42.158;24.748;2023-03-03T08:02:53;99773.31;;;8.77;80.32
18527;BME280;9393;42.158;24.748;2023-03-03T08:06:00;99775.38;;;8.94;79.97
18527;BME280;9393;42.158;24.748;2023-03-03T08:09:47;99772.44;;;8.67;79.38
18527;BME280;9393;42.158;24.748;2023-03-03T08:12:52;99761.53;;;8.73;79.70
18527;BME280;9393;42.158;24.748;2023-03-03T08:16:00;99767.56;;;8.94;79.61
18527;BME280;9393;42.158;24.748;2023-03-03T08:19:05;99763.97;;;9.06;79.53
18527;BME280;9393;42.158;24.748;2023-03-03T08:22:14;99755.72;;;9.22;78.68
18527;BME280;9393;42.158;24.748;2023-03-03T08:25:20;99757.94;;;9.27;78.73
18527;BME280;9393;42.158;24.748;2023-03-03T08:28:24;99756.06;;;9.38;78.56
18527;BME280;9393;42.158;24.748;2023-03-03T08:31:28;99751.75;;;9.28;78.95
18527;BME280;9393;42.158;24.748;2023-03-03T08:34:43;99751.00;;;9.37;78.59
18527;BME280;9393;42.158;24.748;2023-03-03T08:37:46;99748.94;;;9.31;78.15
18527;BME280;9393;42.158;24.748;2023-03-03T08:40:52;99737.81;;;9.29;78.51
18527;BME280;9393;42.158;24.748;2023-03-03T08:43:55;99738.00;;;9.37;77.47
18527;BME280;9393;42.158;24.748;2023-03-03T08:46:59;99735.31;;;9.48;78.42
18527;BME280;9393;42.158;24.748;2023-03-03T08:50:04;99726.19;;;9.33;79.31
18527;BME280;9393;42.158;24.748;2023-03-03T08:53:08;99733.75;;;9.36;80.54
18527;BME280;9393;42.158;24.748;2023-03-03T08:56:13;99732.34;;;9.32;80.35
18527;BME280;9393;42.158;24.748;2023-03-03T08:59:17;99732.91;;;9.35;80.07
18527;BME280;9393;42.158;24.748;2023-03-03T09:02:21;99733.66;;;9.47;79.18
18527;BME280;9393;42.158;24.748;2023-03-03T09:05:26;99734.09;;;9.52;79.59
18527;BME280;9393;42.158;24.748;2023-03-03T09:08:30;99737.47;;;9.73;78.15
18527;BME280;9393;42.158;24.748;2023-03-03T09:11:35;99736.28;;;9.47;79.66
18527;BME280;9393;42.158;24.748;2023-03-03T09:14:39;99726.50;;;9.39;79.70
18527;BME280;9393;42.158;24.748;2023-03-03T09:17:42;99728.69;;;9.64;78.64
18527;BME280;9393;42.158;24.748;2023-03-03T09:20:47;99728.16;;;9.71;79.56
18527;BME280;9393;42.158;24.748;2023-03-03T09:23:53;99727.56;;;9.57;80.04
18527;BME280;9393;42.158;24.748;2023-03-03T09:26:59;99727.34;;;9.80;79.16
18527;BME280;9393;42.158;24.748;2023-03-03T09:30:26;99727.34;;;9.80;78.06
18527;BME280;9393;42.158;24.748;2023-03-03T09:33:40;99716.75;;;10.11;76.75
18527;BME280;9393;42.158;24.748;2023-03-03T09:36:45;99718.59;;;9.90;78.14
18527;BME280;9393;42.158;24.748;2023-03-03T09:39:50;99708.06;;;10.01;78.53
18527;BME280;9393;42.158;24.748;2023-03-03T09:43:01;99716.06;;;10.09;78.71
18527;BME280;9393;42.158;24.748;2023-03-03T09:46:11;99713.94;;;9.84;81.33
18527;BME280;9393;42.158;24.748;2023-03-03T09:49:27;99714.47;;;9.78;81.08
18527;BME280;9393;42.158;24.748;2023-03-03T09:52:40;99708.13;;;9.61;81.23
18527;BME280;9393;42.158;24.748;2023-03-03T09:55:53;99715.09;;;9.61;81.56
18527;BME280;9393;42.158;24.748;2023-03-03T09:59:15;99712.94;;;9.76;80.29
18527;BME280;9393;42.158;24.748;2023-03-03T10:02:30;99705.66;;;9.70;79.44
18527;BME280;9393;42.158;24.748;2023-03-03T10:05:45;99704.22;;;9.56;80.64
18527;BME280;9393;42.158;24.748;2023-03-03T10:09:09;99705.44;;;9.52;79.75
18527;BME280;9393;42.158;24.748;2023-03-03T10:12:21;99706.56;;;9.59;80.12
18527;BME280;9393;42.158;24.748;2023-03-03T10:15:40;99714.00;;;9.63;79.78
18527;BME280;9393;42.158;24.748;2023-03-03T10:18:56;99711.97;;;9.67;78.95
18527;BME280;9393;42.158;24.748;2023-03-03T10:22:06;99701.00;;;9.73;79.02
18527;BME280;9393;42.158;24.748;2023-03-03T10:25:25;99695.53;;;9.76;78.92
18527;BME280;9393;42.158;24.748;2023-03-03T10:28:49;99697.44;;;9.74;79.35
18527;BME280;9393;42.158;24.748;2023-03-03T10:32:19;99693.78;;;9.46;79.40
18527;BME280;9393;42.158;24.748;2023-03-03T10:35:53;99690.31;;;9.06;81.57
18527;BME280;9393;42.158;24.748;2023-03-03T10:39:23;99685.56;;;9.21;80.20
18527;BME280;9393;42.158;24.748;2023-03-03T10:42:44;99681.41;;;9.39;78.57
18527;BME280;9393;42.158;24.748;2023-03-03T10:46:01;99679.84;;;9.57;78.97
18527;BME280;9393;42.158;24.748;2023-03-03T10:49:26;99671.50;;;9.63;78.23
18527;BME280;9393;42.158;24.748;2023-03-03T10:52:38;99674.94;;;9.63;78.74
18527;BME280;9393;42.158;24.748;2023-03-03T10:55:49;99665.09;;;9.77;78.12
18527;BME280;9393;42.158;24.748;2023-03-03T10:59:11;99658.00;;;9.79;77.81
18527;BME280;9393;42.158;24.748;2023-03-03T11:02:21;99656.91;;;9.81;78.25
18527;BME280;9393;42.158;24.748;2023-03-03T11:05:32;99649.56;;;9.56;78.33
18527;BME280;9393;42.158;24.748;2023-03-03T11:08:42;99645.50;;;9.73;78.03
18527;BME280;9393;42.158;24.748;2023-03-03T11:11:52;99646.41;;;9.62;78.32
18527;BME280;9393;42.158;24.748;2023-03-03T11:15:12;99639.22;;;9.75;78.01
18527;BME280;9393;42.158;24.748;2023-03-03T11:18:32;99641.81;;;9.85;77.95
18527;BME280;9393;42.158;24.748;2023-03-03T11:21:44;99639.50;;;10.01;77.72
18527;BME280;9393;42.158;24.748;2023-03-03T11:24:59;99635.97;;;10.11;76.60
18527;BME280;9393;42.158;24.748;2023-03-03T11:28:14;99636.13;;;10.29;76.50
18527;BME280;9393;42.158;24.748;2023-03-03T11:31:27;99637.50;;;10.14;76.92
18527;BME280;9393;42.158;24.748;2023-03-03T11:34:44;99638.16;;;10.45;75.04
18527;BME280;9393;42.158;24.748;2023-03-03T11:37:59;99627.75;;;10.45;74.08
18527;BME280;9393;42.158;24.748;2023-03-03T11:41:13;99626.94;;;10.44;74.19
18527;BME280;9393;42.158;24.748;2023-03-03T11:44:26;99624.19;;;10.46;74.74
18527;BME280;9393;42.158;24.748;2023-03-03T11:47:37;99617.06;;;10.48;75.19
18527;BME280;9393;42.158;24.748;2023-03-03T11:50:46;99609.47;;;9.97;76.48
18527;BME280;9393;42.158;24.748;2023-03-03T11:54:00;99603.19;;;10.28;75.27
18527;BME280;9393;42.158;24.748;2023-03-03T11:57:15;99600.41;;;10.58;75.26
18527;BME280;9393;42.158;24.748;2023-03-03T12:00:28;99592.97;;;10.73;74.31
18527;BME280;9393;42.158;24.748;2023-03-03T12:03:38;99601.25;;;10.69;73.90
18527;BME280;9393;42.158;24.748;2023-03-03T12:06:56;99589.81;;;10.70;72.69
18527;BME280;9393;42.158;24.748;2023-03-03T12:10:27;99594.25;;;10.59;73.98
18527;BME280;9393;42.158;24.748;2023-03-03T12:13:44;99588.47;;;10.65;74.17
18527;BME280;9393;42.158;24.748;2023-03-03T12:16:55;99589.03;;;10.59;75.00
18527;BME280;9393;42.158;24.748;2023-03-03T12:20:05;99586.13;;;10.72;74.66
18527;BME280;9393;42.158;24.748;2023-03-03T12:23:31;99583.94;;;10.68;74.47
18527;BME280;9393;42.158;24.748;2023-03-03T12:26:46;99571.69;;;10.78;74.07
18527;BME280;9393;42.158;24.748;2023-03-03T12:30:05;99578.13;;;10.83;74.26
18527;BME280;9393;42.158;24.748;2023-03-03T12:33:21;99579.09;;;10.73;74.30
18527;BME280;9393;42.158;24.748;2023-03-03T12:36:40;99571.53;;;10.79;73.81
18527;BME280;9393;42.158;24.748;2023-03-03T12:39:57;99575.50;;;10.83;73.87
18527;BME280;9393;42.158;24.748;2023-03-03T12:43:27;99585.66;;;10.96;73.06
18527;BME280;9393;42.158;24.748;2023-03-03T12:46:44;99581.75;;;10.63;73.35
18527;BME280;9393;42.158;24.748;2023-03-03T12:50:02;99585.31;;;10.62;73.82
18527;BME280;9393;42.158;24.748;2023-03-03T12:53:24;99580.88;;;10.16;74.76
18527;BME280;9393;42.158;24.748;2023-03-03T12:56:37;99572.75;;;10.29;74.23
18527;BME280;9393;42.158;24.748;2023-03-03T12:59:53;99570.81;;;10.50;73.52
18527;BME280;9393;42.158;24.748;2023-03-03T13:03:08;99575.50;;;10.18;73.49
18527;BME280;9393;42.158;24.748;2023-03-03T13:06:24;99572.19;;;10.25;73.85
18527;BME280;9393;42.158;24.748;2023-03-03T13:09:39;99569.44;;;10.07;74.53
18527;BME280;9393;42.158;24.748;2023-03-03T13:12:50;99569.47;;;10.27;74.48
18527;BME280;9393;42.158;24.748;2023-03-03T13:16:01;99563.66;;;10.52;73.88
18527;BME280;9393;42.158;24.748;2023-03-03T13:19:11;99568.59;;;10.45;73.76
18527;BME280;9393;42.158;24.748;2023-03-03T13:22:30;99567.78;;;10.54;73.56
18527;BME280;9393;42.158;24.748;2023-03-03T13:25:49;99572.81;;;10.75;72.65
18527;BME280;9393;42.158;24.748;2023-03-03T13:29:04;99567.06;;;10.72;72.80
18527;BME280;9393;42.158;24.748;2023-03-03T13:32:16;99563.78;;;10.60;72.71
18527;BME280;9393;42.158;24.748;2023-03-03T13:35:31;99561.75;;;10.54;73.21
18527;BME280;9393;42.158;24.748;2023-03-03T13:38:39;99564.22;;;9.98;75.89
18527;BME280;9393;42.158;24.748;2023-03-03T13:41:46;99561.63;;;10.07;75.42
18527;BME280;9393;42.158;24.748;2023-03-03T13:44:51;99549.44;;;10.37;74.34
18527;BME280;9393;42.158;24.748;2023-03-03T13:48:05;99545.72;;;10.30;74.76
18527;BME280;9393;42.158;24.748;2023-03-03T13:51:18;99562.03;;;10.51;74.16
18527;BME280;9393;42.158;24.748;2023-03-03T13:54:41;99552.84;;;10.37;74.02
18527;BME280;9393;42.158;24.748;2023-03-03T13:57:57;99561.91;;;10.43;74.07
18527;BME280;9393;42.158;24.748;2023-03-03T14:01:05;99559.69;;;9.90;75.70
18527;BME280;9393;42.158;24.748;2023-03-03T14:04:30;99554.78;;;9.87;76.21
18527;BME280;9393;42.158;24.748;2023-03-03T14:07:38;99548.22;;;9.93;76.35
18527;BME280;9393;42.158;24.748;2023-03-03T14:10:57;99544.78;;;10.02;76.29
18527;BME280;9393;42.158;24.748;2023-03-03T14:14:12;99544.66;;;10.23;75.29
18527;BME280;9393;42.158;24.748;2023-03-03T14:17:27;99544.91;;;10.29;74.39
18527;BME280;9393;42.158;24.748;2023-03-03T14:20:36;99544.75;;;10.11;74.91
18527;BME280;9393;42.158;24.748;2023-03-03T14:23:49;99549.56;;;9.97;74.48
18527;BME280;9393;42.158;24.748;2023-03-03T14:26:59;99548.06;;;9.94;74.84
18527;BME280;9393;42.158;24.748;2023-03-03T14:30:29;99542.72;;;10.05;73.73
18527;BME280;9393;42.158;24.748;2023-03-03T14:33:33;99544.06;;;10.29;73.28
18527;BME280;9393;42.158;24.748;2023-03-03T14:36:40;99537.88;;;10.39;72.01
18527;BME280;9393;42.158;24.748;2023-03-03T14:39:48;99534.47;;;10.29;71.89
18527;BME280;9393;42.158;24.748;2023-03-03T14:42:54;99532.56;;;10.12;71.27
18527;BME280;9393;42.158;24.748;2023-03-03T14:46:21;99527.34;;;10.12;71.67
18527;BME280;9393;42.158;24.748;2023-03-03T14:49:33;99523.91;;;10.21;71.00
18527;BME280;9393;42.158;24.748;2023-03-03T14:52:39;99527.59;;;10.38;70.81
18527;BME280;9393;42.158;24.748;2023-03-03T14:55:45;99526.59;;;10.48;70.23
18527;BME280;9393;42.158;24.748;2023-03-03T14:58:49;99528.13;;;10.51;70.40
18527;BME280;9393;42.158;24.748;2023-03-03T15:02:04;99527.03;;;10.44;70.36
18527;BME280;9393;42.158;24.748;2023-03-03T15:05:21;99527.97;;;10.52;70.40
18527;BME280;9393;42.158;24.748;2023-03-03T15:08:31;99520.59;;;10.48;70.46
18527;BME280;9393;42.158;24.748;2023-03-03T15:11:35;99529.13;;;10.31;70.03
18527;BME280;9393;42.158;24.748;2023-03-03T15:14:43;99529.22;;;10.48;69.83
18527;BME280;9393;42.158;24.748;2023-03-03T15:17:56;99527.16;;;10.52;69.46
18527;BME280;9393;42.158;24.748;2023-03-03T15:21:04;99526.88;;;10.45;70.08
18527;BME280;9393;42.158;24.748;2023-03-03T15:24:13;99534.06;;;10.34;70.61
18527;BME280;9393;42.158;24.748;2023-03-03T15:27:27;99529.22;;;10.48;70.25
18527;BME280;9393;42.158;24.748;2023-03-03T15:30:36;99538.41;;;10.52;70.05
18527;BME280;9393;42.158;24.748;2023-03-03T15:33:46;99538.56;;;10.51;70.14
18527;BME280;9393;42.158;24.748;2023-03-03T15:36:59;99544.16;;;10.56;70.23
18527;BME280;9393;42.158;24.748;2023-03-03T15:40:16;99544.16;;;10.56;69.72
18527;BME280;9393;42.158;24.748;2023-03-03T15:43:27;99538.16;;;10.46;70.11
18527;BME280;9393;42.158;24.748;2023-03-03T15:46:49;99543.78;;;10.51;70.57
18527;BME280;9393;42.158;24.748;2023-03-03T15:50:17;99551.88;;;10.48;70.64
18527;BME280;9393;42.158;24.748;2023-03-03T15:53:36;99545.84;;;10.38;70.50
18527;BME280;9393;42.158;24.748;2023-03-03T15:56:49;99545.03;;;10.28;71.07
18527;BME280;9393;42.158;24.748;2023-03-03T16:00:19;99548.63;;;10.27;71.58
18527;BME280;9393;42.158;24.748;2023-03-03T16:03:30;99552.03;;;10.37;71.28
18527;BME280;9393;42.158;24.748;2023-03-03T16:06:47;99551.63;;;10.32;71.37
18527;BME280;9393;42.158;24.748;2023-03-03T16:10:01;99563.03;;;10.31;71.26
18527;BME280;9393;42.158;24.748;2023-03-03T16:13:20;99572.47;;;10.32;70.41
18527;BME280;9393;42.158;24.748;2023-03-03T16:16:34;99584.81;;;10.30;70.54
18527;BME280;9393;42.158;24.748;2023-03-03T16:19:45;99586.75;;;10.37;70.81
18527;BME280;9393;42.158;24.748;2023-03-03T16:23:09;99588.81;;;10.34;71.21
18527;BME280;9393;42.158;24.748;2023-03-03T16:26:29;99587.81;;;10.35;71.65
18527;BME280;9393;42.158;24.748;2023-03-03T16:29:45;99574.13;;;10.33;71.79
18527;BME280;9393;42.158;24.748;2023-03-03T16:32:53;99577.28;;;10.17;71.28
18527;BME280;9393;42.158;24.748;2023-03-03T16:36:02;99582.50;;;10.27;71.59
18527;BME280;9393;42.158;24.748;2023-03-03T16:39:11;99579.88;;;10.17;71.89
18527;BME280;9393;42.158;24.748;2023-03-03T16:42:24;99585.50;;;10.12;71.85
18527;BME280;9393;42.158;24.748;2023-03-03T16:45:33;99584.94;;;9.99;72.41
18527;BME280;9393;42.158;24.748;2023-03-03T16:48:43;99591.09;;;9.79;73.76
18527;BME280;9393;42.158;24.748;2023-03-03T16:51:55;99599.44;;;9.73;74.20
18527;BME280;9393;42.158;24.748;2023-03-03T16:55:08;99601.50;;;9.79;74.03